createdAt,value
2023-03-25T00:00:17.335Z,1.10
2023-03-25T00:02:47.505Z,1.27
2023-03-25T00:05:16.130Z,1.40
2023-03-25T00:07:44.642Z,1.80
2023-03-25T00:10:13.893Z,1.20
2023-03-25T00:12:42.451Z,1.30
2023-03-25T00:15:11.678Z,1.20
2023-03-25T00:17:38.850Z,1.20
2023-03-25T00:20:11.614Z,1.43
2023-03-25T00:22:44.252Z,1.13
2023-03-25T00:25:20.580Z,1.17
2023-03-25T00:27:48.658Z,1.40
2023-03-25T00:30:18.325Z,1.40
2023-03-25T00:32:49.949Z,1.23
2023-03-25T00:35:19.390Z,1.40
2023-03-25T00:38:00.085Z,1.30
2023-03-25T00:40:36.894Z,1.40
2023-03-25T00:43:05.955Z,1.30
2023-03-25T00:45:34.018Z,1.50
2023-03-25T00:48:01.053Z,1.37
2023-03-25T00:50:28.024Z,1.40
2023-03-25T00:52:54.903Z,1.20
2023-03-25T00:55:22.053Z,1.30
2023-03-25T00:57:48.814Z,1.30
2023-03-25T01:00:18.239Z,1.50
2023-03-25T01:02:45.788Z,1.60
2023-03-25T01:05:12.769Z,1.50
2023-03-25T01:07:41.808Z,1.50
2023-03-25T01:10:09.919Z,1.30
2023-03-25T01:12:37.005Z,1.40
2023-03-25T01:15:04.328Z,1.33
2023-03-25T01:17:31.309Z,1.50
2023-03-25T01:19:58.211Z,1.70
2023-03-25T01:22:25.045Z,1.47
2023-03-25T01:24:52.109Z,1.47
2023-03-25T01:27:18.986Z,1.53
2023-03-25T01:29:46.095Z,1.50
2023-03-25T01:32:12.874Z,1.47
2023-03-25T01:34:39.931Z,1.73
2023-03-25T01:37:07.783Z,1.60
2023-03-25T01:39:34.833Z,1.50
2023-03-25T01:42:01.699Z,1.70
2023-03-25T01:44:29.101Z,1.80
2023-03-25T01:47:01.656Z,1.57
2023-03-25T01:49:46.602Z,1.73
2023-03-25T01:52:18.860Z,1.80
2023-03-25T01:54:47.114Z,2.17
2023-03-25T01:57:19.523Z,1.70
2023-03-25T01:59:47.695Z,2.00
2023-03-25T02:02:18.710Z,1.60
2023-03-25T02:04:59.150Z,1.70
2023-03-25T02:07:33.564Z,1.63
2023-03-25T02:10:06.748Z,1.70
2023-03-25T02:12:34.283Z,1.50
2023-03-25T02:15:06.339Z,1.73
2023-03-25T02:17:52.283Z,1.77
2023-03-25T02:20:40.506Z,1.90
2023-03-25T02:23:32.640Z,1.70
2023-03-25T02:26:36.445Z,1.90
2023-03-25T02:29:23.914Z,1.90
2023-03-25T02:32:15.850Z,1.80
2023-03-25T02:35:20.080Z,1.73
2023-03-25T02:38:11.267Z,1.57
2023-03-25T02:41:04.581Z,1.80
2023-03-25T02:43:45.949Z,1.70
2023-03-25T02:46:18.280Z,1.73
2023-03-25T02:49:27.697Z,1.80
2023-03-25T02:52:15.480Z,1.70
2023-03-25T02:54:45.141Z,1.70
2023-03-25T02:57:19.051Z,1.60
2023-03-25T02:59:48.860Z,1.73
2023-03-25T03:02:17.419Z,1.60
2023-03-25T03:04:53.454Z,2.10
2023-03-25T03:07:29.258Z,1.70
2023-03-25T03:10:22.889Z,1.87
2023-03-25T03:13:37.894Z,1.97
2023-03-25T03:16:18.118Z,1.80
2023-03-25T03:19:38.883Z,1.77
2023-03-25T03:22:29.994Z,1.80
2023-03-25T03:25:23.719Z,1.97
2023-03-25T03:28:24.624Z,1.37
2023-03-25T03:32:02.148Z,1.53
2023-03-25T03:34:24.233Z,1.53
2023-03-25T03:36:55.597Z,1.50
2023-03-25T03:39:32.772Z,1.60
2023-03-25T03:42:21.427Z,1.50
2023-03-25T03:44:55.523Z,1.50
2023-03-25T03:47:29.608Z,1.60
2023-03-25T03:50:07.118Z,1.50
2023-03-25T03:52:45.051Z,1.50
2023-03-25T03:55:21.110Z,1.63
2023-03-25T03:57:59.345Z,1.80
2023-03-25T04:00:57.510Z,1.90
2023-03-25T04:03:38.604Z,2.00
2023-03-25T04:06:27.642Z,1.90
2023-03-25T04:09:06.075Z,1.77
2023-03-25T04:11:56.237Z,2.60
2023-03-25T04:14:23.183Z,1.90
2023-03-25T04:16:49.983Z,1.90
2023-03-25T04:19:18.281Z,2.00
2023-03-25T04:21:47.794Z,1.87
2023-03-25T04:24:16.521Z,2.00
2023-03-25T04:26:43.859Z,1.80
2023-03-25T04:29:10.731Z,1.93
2023-03-25T04:31:37.678Z,2.40
2023-03-25T04:34:04.749Z,2.00
2023-03-25T04:36:37.610Z,1.83
2023-03-25T04:39:04.944Z,2.33
2023-03-25T04:41:33.524Z,1.90
2023-03-25T04:44:00.487Z,2.17
2023-03-25T04:46:27.327Z,2.00
2023-03-25T04:48:56.762Z,1.93
2023-03-25T04:51:23.637Z,2.00
2023-03-25T04:53:50.511Z,1.83
2023-03-25T04:56:19.520Z,2.43
2023-03-25T04:58:47.012Z,3.33
2023-03-25T05:01:24.404Z,2.60
2023-03-25T05:03:51.327Z,2.40
2023-03-25T05:06:18.581Z,2.80
2023-03-25T05:08:45.505Z,2.20
2023-03-25T05:11:12.433Z,2.87
2023-03-25T05:13:40.089Z,2.17
2023-03-25T05:16:07.542Z,2.07
2023-03-25T05:18:34.377Z,1.87
2023-03-25T05:21:02.612Z,1.80
2023-03-25T05:23:31.450Z,2.00
2023-03-25T05:25:58.498Z,1.77
2023-03-25T05:28:25.305Z,2.00
2023-03-25T05:30:52.290Z,1.93
2023-03-25T05:33:19.227Z,2.03
2023-03-25T05:35:46.613Z,1.87
2023-03-25T05:38:18.626Z,2.13
2023-03-25T05:40:47.106Z,2.10
2023-03-25T05:43:16.377Z,2.10
2023-03-25T05:45:44.833Z,2.17
2023-03-25T05:48:11.664Z,2.57
2023-03-25T05:50:38.564Z,2.03
2023-03-25T05:53:05.433Z,2.10
2023-03-25T05:55:32.278Z,2.20
2023-03-25T05:57:59.054Z,2.20
2023-03-25T06:00:26.086Z,2.00
2023-03-25T06:02:53.300Z,1.70
2023-03-25T06:05:23.683Z,2.93
2023-03-25T06:07:51.671Z,2.93
2023-03-25T06:10:18.954Z,2.07
2023-03-25T06:12:47.928Z,2.30
2023-03-25T06:15:33.275Z,1.90
2023-03-25T06:18:00.612Z,1.80
2023-03-25T06:20:27.950Z,2.20
2023-03-25T06:22:54.829Z,1.70
2023-03-25T06:25:21.850Z,2.00
2023-03-25T06:27:50.985Z,1.83
2023-03-25T06:30:21.655Z,1.70
2023-03-25T06:32:53.721Z,2.10
2023-03-25T06:35:21.311Z,2.03
2023-03-25T06:37:49.361Z,2.13
2023-03-25T06:40:27.292Z,1.80
2023-03-25T06:42:54.519Z,1.97
2023-03-25T06:45:53.694Z,1.80
2023-03-25T06:48:32.598Z,1.60
2023-03-25T06:50:59.536Z,2.10
2023-03-25T06:53:26.430Z,2.00
2023-03-25T06:55:53.267Z,2.37
2023-03-25T06:58:20.246Z,2.00
2023-03-25T07:00:47.100Z,2.10
2023-03-25T07:03:13.970Z,2.30
2023-03-25T07:05:43.128Z,2.00
2023-03-25T07:08:10.194Z,1.97
2023-03-25T07:10:36.961Z,1.77
2023-03-25T07:13:03.834Z,2.47
2023-03-25T07:15:31.089Z,1.97
2023-03-25T07:17:57.983Z,2.00
2023-03-25T07:20:24.787Z,1.90
2023-03-25T07:22:53.406Z,2.20
2023-03-25T07:25:20.186Z,1.83
2023-03-25T07:27:46.975Z,2.17
2023-03-25T07:30:17.944Z,2.30
2023-03-25T07:32:47.716Z,2.10
2023-03-25T07:35:14.553Z,1.87
2023-03-25T07:37:41.291Z,1.97
2023-03-25T07:40:08.952Z,1.90
2023-03-25T07:42:38.123Z,1.93
2023-03-25T07:45:20.536Z,2.07
2023-03-25T07:47:51.062Z,2.37
2023-03-25T07:50:22.554Z,1.77
2023-03-25T07:52:51.501Z,1.80
2023-03-25T07:55:18.327Z,1.90
2023-03-25T07:57:45.730Z,1.83
2023-03-25T08:00:13.898Z,1.90
2023-03-25T08:02:41.534Z,1.80
2023-03-25T08:05:09.435Z,2.00
2023-03-25T08:07:36.499Z,1.80
2023-03-25T08:10:03.864Z,2.00
2023-03-25T08:12:30.830Z,1.90
2023-03-25T08:14:57.832Z,2.00
2023-03-25T08:17:24.645Z,1.60
2023-03-25T08:19:51.500Z,2.03
2023-03-25T08:22:18.370Z,1.80
2023-03-25T08:24:45.171Z,2.00
2023-03-25T08:27:14.998Z,1.93
2023-03-25T08:29:44.629Z,2.00
2023-03-25T08:32:11.612Z,1.83
2023-03-25T08:34:41.346Z,1.90
2023-03-25T08:37:08.228Z,2.57
2023-03-25T08:39:39.529Z,1.80
2023-03-25T08:42:08.904Z,2.00
2023-03-25T08:44:36.720Z,1.70
2023-03-25T08:47:03.915Z,1.97
2023-03-25T08:49:32.063Z,1.90
2023-03-25T08:52:00.626Z,2.10
2023-03-25T08:54:28.995Z,1.73
2023-03-25T08:56:55.973Z,1.80
2023-03-25T08:59:23.006Z,2.00
2023-03-25T09:01:49.871Z,2.00
2023-03-25T09:04:17.070Z,1.70
2023-03-25T09:06:47.794Z,1.80
2023-03-25T09:09:30.889Z,1.60
2023-03-25T09:11:57.692Z,1.50
2023-03-25T09:14:24.522Z,1.37
2023-03-25T09:16:51.371Z,2.20
2023-03-25T09:19:18.139Z,1.30
2023-03-25T09:21:44.924Z,1.70
2023-03-25T09:24:12.521Z,1.40
2023-03-25T09:26:39.589Z,1.73
2023-03-25T09:29:06.489Z,1.60
2023-03-25T09:31:33.599Z,1.53
2023-03-25T09:34:01.238Z,1.80
2023-03-25T09:36:28.124Z,1.97
2023-03-25T09:38:54.899Z,1.70
2023-03-25T09:42:01.525Z,1.83
2023-03-25T09:44:37.765Z,1.80
2023-03-25T09:47:07.140Z,1.80
2023-03-25T09:49:53.563Z,1.80
2023-03-25T09:52:32.992Z,1.90
2023-03-25T09:55:11.186Z,1.50
2023-03-25T09:57:49.037Z,1.90
2023-03-25T10:00:25.626Z,1.50
2023-03-25T10:03:28.456Z,1.90
2023-03-25T10:06:20.658Z,1.90
2023-03-25T10:09:05.334Z,1.67
2023-03-25T10:11:54.902Z,1.73
2023-03-25T10:15:05.598Z,1.70
2023-03-25T10:18:01.683Z,1.70
2023-03-25T10:21:07.010Z,2.03
2023-03-25T10:23:49.714Z,1.70
2023-03-25T10:26:58.773Z,1.70
2023-03-25T10:29:44.264Z,1.90
2023-03-25T10:32:19.121Z,2.30
2023-03-25T10:34:54.165Z,1.87
2023-03-25T10:37:36.496Z,2.10
2023-03-25T10:40:31.431Z,2.50
2023-03-25T10:43:31.177Z,2.30
2023-03-25T10:46:22.478Z,2.80
2023-03-25T10:48:50.107Z,2.37
2023-03-25T10:51:32.065Z,2.23
2023-03-25T10:54:00.208Z,2.23
2023-03-25T10:56:34.257Z,2.10
2023-03-25T10:59:23.747Z,2.37
2023-03-25T11:01:53.380Z,2.20
2023-03-25T11:04:27.657Z,2.10
2023-03-25T11:06:58.078Z,2.47
2023-03-25T11:09:34.140Z,2.47
2023-03-25T11:12:06.250Z,2.30
2023-03-25T11:14:39.940Z,2.10
2023-03-25T11:17:18.593Z,2.60
2023-03-25T11:20:00.571Z,1.80
2023-03-25T11:22:31.163Z,2.37
2023-03-25T11:25:07.274Z,2.27
2023-03-25T11:28:02.571Z,2.23
2023-03-25T11:30:29.590Z,2.00
2023-03-25T11:33:06.446Z,1.70
2023-03-25T11:35:44.234Z,1.70
2023-03-25T11:38:23.078Z,1.90
2023-03-25T11:40:55.978Z,2.23
2023-03-25T11:43:36.037Z,2.00
2023-03-25T11:46:16.881Z,1.90
2023-03-25T11:48:50.118Z,1.80
2023-03-25T11:51:32.150Z,1.70
2023-03-25T11:54:05.894Z,2.10
2023-03-25T11:56:40.119Z,2.00
2023-03-25T11:59:23.535Z,2.03
2023-03-25T12:02:02.699Z,1.60
2023-03-25T12:04:30.476Z,1.73
2023-03-25T12:07:09.496Z,1.97
2023-03-25T12:09:37.164Z,2.00
2023-03-25T12:12:57.968Z,2.00
2023-03-25T12:16:01.115Z,1.63
2023-03-25T12:19:12.678Z,1.87
2023-03-25T12:22:01.265Z,1.87
2023-03-25T12:24:50.386Z,1.80
2023-03-25T12:27:42.055Z,2.07
2023-03-25T12:30:51.728Z,1.80
2023-03-25T12:33:39.670Z,1.90
2023-03-25T12:36:48.303Z,1.80
2023-03-25T12:40:02.074Z,2.30
2023-03-25T12:42:46.157Z,1.97
2023-03-25T12:45:25.366Z,2.37
2023-03-25T12:48:30.912Z,2.20
2023-03-25T12:51:32.996Z,1.60
2023-03-25T12:54:50.661Z,1.53
2023-03-25T12:57:47.830Z,1.73
2023-03-25T13:00:58.705Z,2.10
2023-03-25T13:03:47.140Z,1.97
2023-03-25T13:06:22.841Z,2.07
2023-03-25T13:09:04.817Z,2.10
2023-03-25T13:11:51.696Z,2.03
2023-03-25T13:14:41.495Z,2.20
2023-03-25T13:17:25.049Z,2.20
2023-03-25T13:20:02.114Z,1.80
2023-03-25T13:22:44.120Z,2.03
2023-03-25T13:25:30.315Z,1.70
2023-03-25T13:28:04.053Z,1.90
2023-03-25T13:30:45.079Z,1.93
2023-03-25T13:33:17.180Z,1.70
2023-03-25T13:36:30.578Z,1.83
2023-03-25T13:39:10.091Z,1.60
2023-03-25T13:42:05.006Z,2.03
2023-03-25T13:44:38.190Z,2.13
2023-03-25T13:47:31.392Z,2.20
2023-03-25T13:50:18.182Z,2.30
2023-03-25T13:52:54.032Z,1.73
2023-03-25T13:55:32.891Z,1.87
2023-03-25T13:58:34.632Z,2.10
2023-03-25T14:01:04.120Z,2.00
2023-03-25T14:03:58.589Z,1.83
2023-03-25T14:06:51.741Z,2.30
2023-03-25T14:10:03.142Z,1.70
2023-03-25T14:12:42.587Z,1.60
2023-03-25T14:15:22.251Z,2.00
2023-03-25T14:17:52.696Z,1.70
2023-03-25T14:20:30.233Z,2.07
2023-03-25T14:23:03.152Z,1.90
2023-03-25T14:25:37.908Z,1.80
2023-03-25T14:28:08.370Z,2.07
2023-03-25T14:30:35.712Z,2.27
2023-03-25T14:33:03.027Z,1.93
2023-03-25T14:35:33.284Z,1.70
2023-03-25T14:38:06.513Z,1.97
2023-03-25T14:40:50.747Z,2.00
2023-03-25T14:44:17.992Z,1.80
2023-03-25T14:46:47.998Z,2.27
2023-03-25T14:49:23.149Z,1.90
2023-03-25T14:51:57.966Z,2.37
2023-03-25T14:54:33.386Z,2.13
2023-03-25T14:57:18.544Z,2.40
2023-03-25T15:00:14.241Z,2.03
2023-03-25T15:02:49.519Z,2.03
2023-03-25T15:05:26.251Z,2.20
2023-03-25T15:08:17.575Z,2.07
2023-03-25T15:11:05.614Z,2.00
2023-03-25T15:13:46.219Z,2.00
2023-03-25T15:16:46.297Z,1.83
2023-03-25T15:19:16.047Z,2.07
2023-03-25T15:21:58.116Z,1.97
2023-03-25T15:24:40.595Z,1.90
2023-03-25T15:27:49.382Z,1.80
2023-03-25T15:30:51.534Z,2.00
2023-03-25T15:33:24.487Z,1.70
2023-03-25T15:36:29.190Z,1.80
2023-03-25T15:39:33.311Z,1.67
2023-03-25T15:43:02.004Z,2.00
2023-03-25T15:45:40.781Z,1.93
2023-03-25T15:49:11.153Z,2.10
2023-03-25T15:52:24.020Z,2.13
2023-03-25T15:55:38.150Z,1.73
2023-03-25T15:58:18.147Z,2.57
2023-03-25T16:00:50.705Z,2.47
2023-03-25T16:03:27.212Z,2.23
2023-03-25T16:06:03.934Z,2.23
2023-03-25T16:08:42.897Z,2.10
2023-03-25T16:11:21.932Z,2.30
2023-03-25T16:14:11.222Z,2.30
2023-03-25T16:16:45.642Z,2.10
2023-03-25T16:19:20.409Z,1.90
2023-03-25T16:21:53.609Z,2.07
2023-03-25T16:24:34.004Z,2.60
2023-03-25T16:27:12.342Z,2.03
2023-03-25T16:29:39.658Z,2.30
2023-03-25T16:32:06.792Z,2.40
2023-03-25T16:34:37.781Z,2.63
2023-03-25T16:37:07.550Z,2.03
2023-03-25T16:39:37.049Z,2.00
2023-03-25T16:42:26.380Z,2.20
2023-03-25T16:44:54.205Z,2.33
2023-03-25T16:47:22.785Z,1.97
2023-03-25T16:49:54.248Z,2.37
2023-03-25T16:52:27.811Z,3.60
2023-03-25T16:54:54.487Z,3.70
2023-03-25T16:57:37.318Z,2.97
2023-03-25T17:00:17.980Z,2.80
2023-03-25T17:02:48.430Z,2.50
2023-03-25T17:05:28.895Z,2.73
2023-03-25T17:08:04.086Z,2.60
2023-03-25T17:10:46.069Z,2.60
2023-03-25T17:13:27.535Z,2.60
2023-03-25T17:15:54.759Z,2.90
2023-03-25T17:18:28.736Z,3.03
2023-03-25T17:21:00.202Z,2.80
2023-03-25T17:23:40.090Z,3.07
2023-03-25T17:26:12.878Z,3.13
2023-03-25T17:28:43.945Z,2.80
2023-03-25T17:31:38.813Z,3.00
2023-03-25T17:34:24.172Z,3.07
2023-03-25T17:37:00.341Z,3.03
2023-03-25T17:39:33.423Z,3.47
2023-03-25T17:42:07.052Z,3.10
2023-03-25T17:44:40.174Z,3.70
2023-03-25T17:47:12.663Z,3.30
2023-03-25T17:49:39.473Z,2.90
2023-03-25T17:52:08.698Z,1.93
2023-03-25T17:54:36.233Z,1.97
2023-03-25T17:57:23.651Z,2.30
2023-03-25T17:59:51.532Z,2.10
2023-03-25T18:02:18.340Z,2.40
2023-03-25T18:04:45.168Z,2.30
2023-03-25T18:07:11.951Z,2.60
2023-03-25T18:09:40.882Z,3.60
2023-03-25T18:12:07.813Z,4.47
2023-03-25T18:14:35.238Z,5.40
2023-03-25T18:17:03.894Z,4.93
2023-03-25T18:19:31.907Z,3.30
2023-03-25T18:22:06.902Z,2.50
2023-03-25T18:24:40.831Z,2.50
2023-03-25T18:27:10.544Z,2.13
2023-03-25T18:29:39.262Z,2.40
2023-03-25T18:32:06.112Z,2.13
2023-03-25T18:34:33.035Z,2.10
2023-03-25T18:36:59.809Z,2.23
2023-03-25T18:39:27.711Z,2.10
2023-03-25T18:41:54.496Z,2.30
2023-03-25T18:44:21.596Z,2.10
2023-03-25T18:46:48.382Z,2.10
2023-03-25T18:49:19.166Z,2.03
2023-03-25T18:51:48.438Z,2.10
2023-03-25T18:54:16.651Z,2.17
2023-03-25T18:56:44.008Z,2.10
2023-03-25T18:59:16.157Z,1.80
2023-03-25T19:01:42.973Z,2.07
2023-03-25T19:04:10.021Z,1.80
2023-03-25T19:06:39.898Z,1.90
2023-03-25T19:09:09.185Z,1.90
2023-03-25T19:11:36.226Z,2.00
2023-03-25T19:14:03.461Z,1.97
2023-03-25T19:16:30.510Z,1.90
2023-03-25T19:18:57.361Z,2.30
2023-03-25T19:21:24.378Z,2.07
2023-03-25T19:23:52.052Z,2.40
2023-03-25T19:26:18.935Z,2.20
2023-03-25T19:28:45.792Z,2.33
2023-03-25T19:31:18.413Z,2.47
2023-03-25T19:33:45.474Z,2.67
2023-03-25T19:36:18.738Z,2.47
2023-03-25T19:38:45.609Z,2.00
2023-03-25T19:41:17.767Z,2.50
2023-03-25T19:43:45.126Z,1.93
2023-03-25T19:46:12.088Z,2.47
2023-03-25T19:48:38.900Z,2.27
2023-03-25T19:51:06.906Z,2.20
2023-03-25T19:53:33.868Z,2.23
2023-03-25T19:56:05.814Z,2.10
2023-03-25T19:58:34.618Z,2.47
2023-03-25T20:01:01.767Z,2.40
2023-03-25T20:03:31.125Z,3.00
2023-03-25T20:06:00.378Z,2.53
2023-03-25T20:08:29.143Z,2.60
2023-03-25T20:10:56.442Z,7.03
2023-03-25T20:13:23.251Z,3.83
2023-03-25T20:15:50.728Z,4.90
2023-03-25T20:18:18.440Z,4.40
2023-03-25T20:20:45.289Z,4.47
2023-03-25T20:23:12.112Z,3.23
2023-03-25T20:25:38.956Z,4.10
2023-03-25T20:28:06.051Z,3.47
2023-03-25T20:30:35.184Z,3.27
2023-03-25T20:33:02.124Z,3.63
2023-03-25T20:35:30.313Z,3.77
2023-03-25T20:37:57.433Z,3.20
2023-03-25T20:40:33.696Z,3.30
2023-03-25T20:43:04.866Z,3.10
2023-03-25T20:45:32.890Z,3.33
2023-03-25T20:47:59.739Z,2.63
2023-03-25T20:50:27.097Z,3.10
2023-03-25T20:52:53.857Z,3.40
2023-03-25T20:55:20.965Z,3.23
2023-03-25T20:57:47.728Z,3.33
2023-03-25T21:00:14.735Z,3.70
2023-03-25T21:02:42.446Z,2.97
2023-03-25T21:05:09.675Z,3.40
2023-03-25T21:07:37.582Z,3.30
2023-03-25T21:10:05.031Z,3.77
2023-03-25T21:12:42.501Z,3.77
2023-03-25T21:15:10.525Z,3.47
2023-03-25T21:17:37.695Z,3.77
2023-03-25T21:20:07.164Z,3.67
2023-03-25T21:22:34.951Z,3.70
2023-03-25T21:25:01.914Z,3.37
2023-03-25T21:27:37.931Z,4.27
2023-03-25T21:30:09.435Z,3.63
2023-03-25T21:32:38.089Z,3.70
2023-03-25T21:35:05.276Z,3.43
2023-03-25T21:37:37.428Z,3.67
2023-03-25T21:40:07.885Z,4.30
2023-03-25T21:42:34.652Z,3.77
2023-03-25T21:45:02.514Z,3.60
2023-03-25T21:47:29.301Z,3.80
2023-03-25T21:49:56.472Z,3.60
2023-03-25T21:52:26.184Z,3.97
2023-03-25T21:54:54.271Z,3.50
2023-03-25T21:57:21.808Z,4.70
2023-03-25T21:59:49.334Z,3.70
2023-03-25T22:02:17.006Z,3.97
2023-03-25T22:04:43.781Z,3.40
2023-03-25T22:07:10.980Z,4.00
2023-03-25T22:09:38.124Z,3.50
2023-03-25T22:12:05.313Z,4.20
2023-03-25T22:14:32.313Z,3.50
2023-03-25T22:16:59.119Z,4.63
2023-03-25T22:19:25.985Z,4.40
2023-03-25T22:21:52.735Z,4.10
2023-03-25T22:24:19.499Z,3.97
2023-03-25T22:26:46.254Z,3.73
2023-03-25T22:29:13.454Z,4.53
2023-03-25T22:31:40.525Z,4.37
2023-03-25T22:34:11.897Z,3.97
2023-03-25T22:36:42.518Z,3.73
2023-03-25T22:39:10.328Z,5.03
2023-03-25T22:41:37.194Z,4.00
2023-03-25T22:44:04.377Z,4.03
2023-03-25T22:46:32.066Z,4.00
2023-03-25T22:48:59.347Z,4.43
2023-03-25T22:51:27.339Z,4.00
2023-03-25T22:53:54.160Z,4.07
2023-03-25T22:56:23.341Z,4.03
2023-03-25T22:58:53.763Z,3.70
2023-03-25T23:01:25.809Z,4.00
2023-03-25T23:03:54.572Z,3.63
2023-03-25T23:06:22.301Z,4.07
2023-03-25T23:08:50.050Z,4.30
2023-03-25T23:11:23.912Z,3.57
2023-03-25T23:13:55.236Z,3.77
2023-03-25T23:16:27.381Z,4.30
2023-03-25T23:18:54.353Z,3.13
2023-03-25T23:21:29.699Z,3.67
2023-03-25T23:24:00.259Z,4.13
2023-03-25T23:26:34.722Z,5.00
2023-03-25T23:29:03.956Z,4.50
2023-03-25T23:31:36.780Z,4.17
2023-03-25T23:34:08.011Z,5.07
2023-03-25T23:36:38.128Z,3.93
2023-03-25T23:39:10.913Z,3.87
2023-03-25T23:41:38.562Z,4.40
2023-03-25T23:44:06.073Z,4.30
2023-03-25T23:46:34.456Z,4.03
2023-03-25T23:49:04.216Z,4.70
2023-03-25T23:51:38.237Z,3.43
2023-03-25T23:54:13.088Z,5.33
2023-03-25T23:56:41.974Z,4.30
2023-03-25T23:59:10.446Z,4.63
